sensor_id;sensor_type;location;lat;lon;timestamp;P1;durP1;ratioP1;P2;durP2;ratioP2
35150;SDS011;55720;51.972;4.624;2023-02-12T00:01:38;15.32;;;9.70;;
35150;SDS011;55720;51.972;4.624;2023-02-12T00:04:04;19.90;;;11.35;;
35150;SDS011;55720;51.972;4.624;2023-02-12T00:06:30;15.52;;;10.27;;
35150;SDS011;55720;51.972;4.624;2023-02-12T00:08:56;18.88;;;10.45;;
35150;SDS011;55720;51.972;4.624;2023-02-12T00:11:26;17.08;;;10.27;;
35150;SDS011;55720;51.972;4.624;2023-02-12T00:13:53;15.77;;;10.48;;
35150;SDS011;55720;51.972;4.624;2023-02-12T00:16:21;17.45;;;10.60;;
35150;SDS011;55720;51.972;4.624;2023-02-12T00:18:51;17.77;;;9.95;;
35150;SDS011;55720;51.972;4.624;2023-02-12T00:21:19;14.90;;;9.07;;
35150;SDS011;55720;51.972;4.624;2023-02-12T00:23:46;18.52;;;9.55;;
35150;SDS011;55720;51.972;4.624;2023-02-12T00:26:13;13.73;;;9.55;;
35150;SDS011;55720;51.972;4.624;2023-02-12T00:28:41;15.30;;;10.48;;
35150;SDS011;55720;51.972;4.624;2023-02-12T00:31:15;19.55;;;10.30;;
35150;SDS011;55720;51.972;4.624;2023-02-12T00:33:46;19.10;;;10.50;;
35150;SDS011;55720;51.972;4.624;2023-02-12T00:36:16;15.82;;;10.18;;
35150;SDS011;55720;51.972;4.624;2023-02-12T00:38:45;17.40;;;10.05;;
35150;SDS011;55720;51.972;4.624;2023-02-12T00:41:11;19.13;;;10.98;;
35150;SDS011;55720;51.972;4.624;2023-02-12T00:43:38;19.30;;;9.55;;
35150;SDS011;55720;51.972;4.624;2023-02-12T00:46:05;31.48;;;15.15;;
35150;SDS011;55720;51.972;4.624;2023-02-12T00:48:31;24.10;;;12.50;;
35150;SDS011;55720;51.972;4.624;2023-02-12T00:50:58;21.20;;;11.00;;
35150;SDS011;55720;51.972;4.624;2023-02-12T00:53:26;30.25;;;14.32;;
35150;SDS011;55720;51.972;4.624;2023-02-12T00:55:51;26.15;;;14.50;;
35150;SDS011;55720;51.972;4.624;2023-02-12T00:58:17;28.70;;;14.20;;
35150;SDS011;55720;51.972;4.624;2023-02-12T01:00:45;29.50;;;13.85;;
35150;SDS011;55720;51.972;4.624;2023-02-12T01:05:40;23.50;;;13.50;;
35150;SDS011;55720;51.972;4.624;2023-02-12T01:08:06;30.10;;;14.63;;
35150;SDS011;55720;51.972;4.624;2023-02-12T01:10:31;31.98;;;13.98;;
35150;SDS011;55720;51.972;4.624;2023-02-12T01:12:58;35.65;;;14.73;;
35150;SDS011;55720;51.972;4.624;2023-02-12T01:15:23;31.85;;;13.90;;
35150;SDS011;55720;51.972;4.624;2023-02-12T01:17:52;26.23;;;14.65;;
35150;SDS011;55720;51.972;4.624;2023-02-12T01:20:19;26.75;;;15.00;;
35150;SDS011;55720;51.972;4.624;2023-02-12T01:22:47;26.83;;;14.80;;
35150;SDS011;55720;51.972;4.624;2023-02-12T01:25:14;25.88;;;14.25;;
35150;SDS011;55720;51.972;4.624;2023-02-12T01:27:40;26.02;;;13.75;;
35150;SDS011;55720;51.972;4.624;2023-02-12T01:30:08;23.25;;;12.75;;
35150;SDS011;55720;51.972;4.624;2023-02-12T01:32:37;22.33;;;13.50;;
35150;SDS011;55720;51.972;4.624;2023-02-12T01:35:04;25.95;;;14.35;;
35150;SDS011;55720;51.972;4.624;2023-02-12T01:37:33;28.77;;;14.23;;
35150;SDS011;55720;51.972;4.624;2023-02-12T01:40:00;26.48;;;13.85;;
35150;SDS011;55720;51.972;4.624;2023-02-12T01:42:25;29.77;;;14.02;;
35150;SDS011;55720;51.972;4.624;2023-02-12T01:47:39;31.90;;;14.82;;
35150;SDS011;55720;51.972;4.624;2023-02-12T01:50:07;31.55;;;15.10;;
35150;SDS011;55720;51.972;4.624;2023-02-12T01:52:36;25.60;;;13.57;;
35150;SDS011;55720;51.972;4.624;2023-02-12T01:55:07;18.73;;;9.80;;
35150;SDS011;55720;51.972;4.624;2023-02-12T01:57:40;28.00;;;14.05;;
35150;SDS011;55720;51.972;4.624;2023-02-12T02:00:10;23.20;;;13.85;;
35150;SDS011;55720;51.972;4.624;2023-02-12T02:02:38;27.98;;;14.63;;
35150;SDS011;55720;51.972;4.624;2023-02-12T02:05:04;26.10;;;13.52;;
35150;SDS011;55720;51.972;4.624;2023-02-12T02:07:31;24.05;;;13.90;;
35150;SDS011;55720;51.972;4.624;2023-02-12T02:09:57;25.70;;;14.05;;
35150;SDS011;55720;51.972;4.624;2023-02-12T02:12:24;20.73;;;13.60;;
35150;SDS011;55720;51.972;4.624;2023-02-12T02:15:09;23.88;;;13.35;;
35150;SDS011;55720;51.972;4.624;2023-02-12T02:36:45;22.60;;;11.52;;
35150;SDS011;55720;51.972;4.624;2023-02-12T02:39:35;17.05;;;11.88;;
35150;SDS011;55720;51.972;4.624;2023-02-12T02:42:21;17.75;;;11.45;;
35150;SDS011;55720;51.972;4.624;2023-02-12T02:44:59;18.05;;;11.23;;
35150;SDS011;55720;51.972;4.624;2023-02-12T02:47:35;18.00;;;11.82;;
35150;SDS011;55720;51.972;4.624;2023-02-12T02:50:08;16.92;;;11.23;;
35150;SDS011;55720;51.972;4.624;2023-02-12T02:52:38;20.23;;;11.90;;
35150;SDS011;55720;51.972;4.624;2023-02-12T02:55:09;18.80;;;11.80;;
35150;SDS011;55720;51.972;4.624;2023-02-12T03:00:13;19.02;;;11.65;;
35150;SDS011;55720;51.972;4.624;2023-02-12T03:02:44;18.63;;;11.85;;
35150;SDS011;55720;51.972;4.624;2023-02-12T03:07:50;15.70;;;11.38;;
35150;SDS011;55720;51.972;4.624;2023-02-12T03:10:24;17.48;;;12.18;;
35150;SDS011;55720;51.972;4.624;2023-02-12T03:12:59;20.90;;;13.20;;
35150;SDS011;55720;51.972;4.624;2023-02-12T03:15:33;17.15;;;12.35;;
35150;SDS011;55720;51.972;4.624;2023-02-12T03:18:00;21.55;;;12.15;;
35150;SDS011;55720;51.972;4.624;2023-02-12T03:20:29;22.38;;;13.07;;
35150;SDS011;55720;51.972;4.624;2023-02-12T03:23:01;18.52;;;12.20;;
35150;SDS011;55720;51.972;4.624;2023-02-12T03:25:34;18.48;;;12.20;;
35150;SDS011;55720;51.972;4.624;2023-02-12T03:31:22;18.88;;;12.40;;
35150;SDS011;55720;51.972;4.624;2023-02-12T03:38:52;20.40;;;12.65;;
35150;SDS011;55720;51.972;4.624;2023-02-12T03:44:07;17.15;;;11.95;;
35150;SDS011;55720;51.972;4.624;2023-02-12T03:47:01;19.92;;;11.68;;
35150;SDS011;55720;51.972;4.624;2023-02-12T03:49:34;18.17;;;11.68;;
35150;SDS011;55720;51.972;4.624;2023-02-12T03:52:07;19.55;;;12.30;;
35150;SDS011;55720;51.972;4.624;2023-02-12T03:54:32;16.65;;;11.98;;
35150;SDS011;55720;51.972;4.624;2023-02-12T03:59:35;15.77;;;11.98;;
35150;SDS011;55720;51.972;4.624;2023-02-12T04:02:03;22.83;;;13.23;;
35150;SDS011;55720;51.972;4.624;2023-02-12T04:04:29;15.25;;;11.95;;
35150;SDS011;55720;51.972;4.624;2023-02-12T04:06:55;16.60;;;12.05;;
35150;SDS011;55720;51.972;4.624;2023-02-12T04:09:21;20.67;;;13.20;;
35150;SDS011;55720;51.972;4.624;2023-02-12T04:17:08;19.85;;;12.05;;
35150;SDS011;55720;51.972;4.624;2023-02-12T04:20:04;17.83;;;12.00;;
35150;SDS011;55720;51.972;4.624;2023-02-12T04:26:00;20.63;;;12.18;;
35150;SDS011;55720;51.972;4.624;2023-02-12T04:34:20;19.50;;;11.65;;
35150;SDS011;55720;51.972;4.624;2023-02-12T04:36:53;18.08;;;11.88;;
35150;SDS011;55720;51.972;4.624;2023-02-12T04:39:25;17.38;;;11.93;;
35150;SDS011;55720;51.972;4.624;2023-02-12T04:41:53;18.35;;;12.20;;
35150;SDS011;55720;51.972;4.624;2023-02-12T04:44:28;20.75;;;13.15;;
35150;SDS011;55720;51.972;4.624;2023-02-12T04:46:55;17.00;;;12.18;;
35150;SDS011;55720;51.972;4.624;2023-02-12T04:49:21;20.00;;;12.75;;
35150;SDS011;55720;51.972;4.624;2023-02-12T04:51:47;17.45;;;12.50;;
35150;SDS011;55720;51.972;4.624;2023-02-12T04:54:14;15.90;;;11.88;;
35150;SDS011;55720;51.972;4.624;2023-02-12T04:56:41;15.75;;;11.50;;
35150;SDS011;55720;51.972;4.624;2023-02-12T04:59:06;18.45;;;12.02;;
35150;SDS011;55720;51.972;4.624;2023-02-12T05:01:33;21.13;;;12.35;;
35150;SDS011;55720;51.972;4.624;2023-02-12T05:04:00;19.67;;;12.10;;
35150;SDS011;55720;51.972;4.624;2023-02-12T05:06:25;18.60;;;12.18;;
35150;SDS011;55720;51.972;4.624;2023-02-12T05:08:54;14.65;;;11.35;;
35150;SDS011;55720;51.972;4.624;2023-02-12T05:11:19;17.27;;;11.98;;
35150;SDS011;55720;51.972;4.624;2023-02-12T05:13:48;18.23;;;12.93;;
35150;SDS011;55720;51.972;4.624;2023-02-12T05:16:14;18.60;;;12.30;;
35150;SDS011;55720;51.972;4.624;2023-02-12T05:18:40;15.88;;;11.77;;
35150;SDS011;55720;51.972;4.624;2023-02-12T05:21:05;17.92;;;13.13;;
35150;SDS011;55720;51.972;4.624;2023-02-12T05:23:32;19.30;;;12.25;;
35150;SDS011;55720;51.972;4.624;2023-02-12T05:25:59;20.42;;;12.52;;
35150;SDS011;55720;51.972;4.624;2023-02-12T05:28:26;18.75;;;12.27;;
35150;SDS011;55720;51.972;4.624;2023-02-12T05:30:52;20.90;;;12.40;;
35150;SDS011;55720;51.972;4.624;2023-02-12T05:33:17;18.23;;;11.77;;
35150;SDS011;55720;51.972;4.624;2023-02-12T05:35:42;16.75;;;12.18;;
35150;SDS011;55720;51.972;4.624;2023-02-12T05:38:08;15.55;;;11.30;;
35150;SDS011;55720;51.972;4.624;2023-02-12T05:40:34;16.95;;;11.57;;
35150;SDS011;55720;51.972;4.624;2023-02-12T05:43:00;16.90;;;11.38;;
35150;SDS011;55720;51.972;4.624;2023-02-12T05:45:25;19.48;;;12.30;;
35150;SDS011;55720;51.972;4.624;2023-02-12T05:47:53;18.58;;;12.57;;
35150;SDS011;55720;51.972;4.624;2023-02-12T05:50:19;21.48;;;12.55;;
35150;SDS011;55720;51.972;4.624;2023-02-12T05:52:45;16.80;;;11.93;;
35150;SDS011;55720;51.972;4.624;2023-02-12T05:55:10;18.40;;;12.30;;
35150;SDS011;55720;51.972;4.624;2023-02-12T05:57:35;21.63;;;12.25;;
35150;SDS011;55720;51.972;4.624;2023-02-12T06:00:02;17.13;;;11.32;;
35150;SDS011;55720;51.972;4.624;2023-02-12T06:02:29;16.90;;;11.63;;
35150;SDS011;55720;51.972;4.624;2023-02-12T06:04:54;19.52;;;11.80;;
35150;SDS011;55720;51.972;4.624;2023-02-12T06:07:19;18.40;;;12.52;;
35150;SDS011;55720;51.972;4.624;2023-02-12T06:09:45;16.77;;;11.73;;
35150;SDS011;55720;51.972;4.624;2023-02-12T06:12:11;20.15;;;12.15;;
35150;SDS011;55720;51.972;4.624;2023-02-12T06:14:36;18.42;;;12.70;;
35150;SDS011;55720;51.972;4.624;2023-02-12T06:17:04;16.05;;;11.43;;
35150;SDS011;55720;51.972;4.624;2023-02-12T06:19:30;18.92;;;11.65;;
35150;SDS011;55720;51.972;4.624;2023-02-12T06:21:55;17.85;;;11.82;;
35150;SDS011;55720;51.972;4.624;2023-02-12T06:24:20;17.42;;;12.00;;
35150;SDS011;55720;51.972;4.624;2023-02-12T06:26:47;15.35;;;11.52;;
35150;SDS011;55720;51.972;4.624;2023-02-12T06:29:14;19.15;;;11.65;;
35150;SDS011;55720;51.972;4.624;2023-02-12T06:31:40;19.05;;;11.88;;
35150;SDS011;55720;51.972;4.624;2023-02-12T06:34:07;17.40;;;11.30;;
35150;SDS011;55720;51.972;4.624;2023-02-12T06:36:37;15.18;;;11.18;;
35150;SDS011;55720;51.972;4.624;2023-02-12T06:39:05;17.35;;;11.45;;
35150;SDS011;55720;51.972;4.624;2023-02-12T06:41:31;17.42;;;11.23;;
35150;SDS011;55720;51.972;4.624;2023-02-12T06:43:56;18.27;;;11.68;;
35150;SDS011;55720;51.972;4.624;2023-02-12T06:46:22;16.85;;;10.32;;
35150;SDS011;55720;51.972;4.624;2023-02-12T06:48:47;16.30;;;11.10;;
35150;SDS011;55720;51.972;4.624;2023-02-12T06:51:14;18.38;;;11.55;;
35150;SDS011;55720;51.972;4.624;2023-02-12T06:53:40;16.55;;;10.57;;
35150;SDS011;55720;51.972;4.624;2023-02-12T06:56:07;17.60;;;10.68;;
35150;SDS011;55720;51.972;4.624;2023-02-12T06:58:35;16.40;;;10.85;;
35150;SDS011;55720;51.972;4.624;2023-02-12T07:01:15;17.23;;;10.65;;
35150;SDS011;55720;51.972;4.624;2023-02-12T07:03:42;16.52;;;10.70;;
35150;SDS011;55720;51.972;4.624;2023-02-12T07:06:11;16.60;;;11.63;;
35150;SDS011;55720;51.972;4.624;2023-02-12T07:08:37;13.20;;;10.65;;
35150;SDS011;55720;51.972;4.624;2023-02-12T07:11:03;14.30;;;11.00;;
35150;SDS011;55720;51.972;4.624;2023-02-12T07:13:29;16.77;;;11.05;;
35150;SDS011;55720;51.972;4.624;2023-02-12T07:15:54;16.00;;;11.20;;
35150;SDS011;55720;51.972;4.624;2023-02-12T07:18:20;20.42;;;12.43;;
35150;SDS011;55720;51.972;4.624;2023-02-12T07:20:45;16.33;;;11.90;;
35150;SDS011;55720;51.972;4.624;2023-02-12T07:23:11;19.02;;;13.45;;
35150;SDS011;55720;51.972;4.624;2023-02-12T07:25:36;19.00;;;12.50;;
35150;SDS011;55720;51.972;4.624;2023-02-12T07:28:02;15.82;;;11.82;;
35150;SDS011;55720;51.972;4.624;2023-02-12T07:30:27;18.45;;;11.55;;
35150;SDS011;55720;51.972;4.624;2023-02-12T07:32:53;17.17;;;12.25;;
35150;SDS011;55720;51.972;4.624;2023-02-12T07:35:18;17.40;;;12.38;;
35150;SDS011;55720;51.972;4.624;2023-02-12T07:37:46;19.52;;;12.52;;
35150;SDS011;55720;51.972;4.624;2023-02-12T07:40:12;17.08;;;12.50;;
35150;SDS011;55720;51.972;4.624;2023-02-12T07:42:37;18.63;;;11.80;;
35150;SDS011;55720;51.972;4.624;2023-02-12T07:45:03;15.55;;;10.88;;
35150;SDS011;55720;51.972;4.624;2023-02-12T07:47:29;21.27;;;11.77;;
35150;SDS011;55720;51.972;4.624;2023-02-12T07:49:54;19.55;;;11.73;;
35150;SDS011;55720;51.972;4.624;2023-02-12T07:52:20;18.85;;;12.23;;
35150;SDS011;55720;51.972;4.624;2023-02-12T07:54:46;19.27;;;11.60;;
35150;SDS011;55720;51.972;4.624;2023-02-12T07:57:11;18.42;;;11.35;;
35150;SDS011;55720;51.972;4.624;2023-02-12T07:59:36;15.68;;;11.20;;
35150;SDS011;55720;51.972;4.624;2023-02-12T08:02:02;16.17;;;11.60;;
35150;SDS011;55720;51.972;4.624;2023-02-12T08:04:27;18.05;;;11.13;;
35150;SDS011;55720;51.972;4.624;2023-02-12T08:06:53;15.35;;;10.90;;
35150;SDS011;55720;51.972;4.624;2023-02-12T08:09:21;20.08;;;11.50;;
35150;SDS011;55720;51.972;4.624;2023-02-12T08:11:50;18.63;;;11.55;;
35150;SDS011;55720;51.972;4.624;2023-02-12T08:14:16;15.82;;;11.15;;
35150;SDS011;55720;51.972;4.624;2023-02-12T08:16:44;16.33;;;11.15;;
35150;SDS011;55720;51.972;4.624;2023-02-12T08:19:11;19.40;;;11.85;;
35150;SDS011;55720;51.972;4.624;2023-02-12T08:21:36;18.52;;;11.38;;
35150;SDS011;55720;51.972;4.624;2023-02-12T08:24:02;12.18;;;10.02;;
35150;SDS011;55720;51.972;4.624;2023-02-12T08:26:32;16.30;;;11.50;;
35150;SDS011;55720;51.972;4.624;2023-02-12T08:29:00;14.25;;;10.40;;
35150;SDS011;55720;51.972;4.624;2023-02-12T08:31:29;16.40;;;11.13;;
35150;SDS011;55720;51.972;4.624;2023-02-12T08:33:55;18.23;;;11.25;;
35150;SDS011;55720;51.972;4.624;2023-02-12T08:36:25;16.73;;;11.50;;
35150;SDS011;55720;51.972;4.624;2023-02-12T08:38:52;17.67;;;11.30;;
35150;SDS011;55720;51.972;4.624;2023-02-12T08:43:45;14.23;;;10.13;;
35150;SDS011;55720;51.972;4.624;2023-02-12T08:46:14;16.75;;;10.88;;
35150;SDS011;55720;51.972;4.624;2023-02-12T08:48:42;14.05;;;10.75;;
35150;SDS011;55720;51.972;4.624;2023-02-12T08:51:11;15.68;;;11.02;;
35150;SDS011;55720;51.972;4.624;2023-02-12T08:53:45;15.73;;;10.20;;
35150;SDS011;55720;51.972;4.624;2023-02-12T08:56:13;12.25;;;9.82;;
35150;SDS011;55720;51.972;4.624;2023-02-12T08:58:40;13.50;;;10.20;;
35150;SDS011;55720;51.972;4.624;2023-02-12T09:01:11;15.63;;;10.30;;
35150;SDS011;55720;51.972;4.624;2023-02-12T09:03:40;18.55;;;11.38;;
35150;SDS011;55720;51.972;4.624;2023-02-12T09:06:06;17.48;;;10.45;;
35150;SDS011;55720;51.972;4.624;2023-02-12T09:08:33;14.07;;;10.48;;
35150;SDS011;55720;51.972;4.624;2023-02-12T09:10:59;11.18;;;9.73;;
35150;SDS011;55720;51.972;4.624;2023-02-12T09:13:27;14.75;;;10.40;;
35150;SDS011;55720;51.972;4.624;2023-02-12T09:15:53;13.07;;;10.73;;
35150;SDS011;55720;51.972;4.624;2023-02-12T09:18:18;14.38;;;10.43;;
35150;SDS011;55720;51.972;4.624;2023-02-12T09:20:43;17.50;;;10.15;;
35150;SDS011;55720;51.972;4.624;2023-02-12T09:23:10;12.20;;;10.02;;
35150;SDS011;55720;51.972;4.624;2023-02-12T09:25:41;12.65;;;9.95;;
35150;SDS011;55720;51.972;4.624;2023-02-12T09:28:08;14.80;;;10.60;;
35150;SDS011;55720;51.972;4.624;2023-02-12T09:30:35;14.77;;;10.35;;
35150;SDS011;55720;51.972;4.624;2023-02-12T09:33:02;15.65;;;9.95;;
35150;SDS011;55720;51.972;4.624;2023-02-12T09:35:28;14.93;;;11.15;;
35150;SDS011;55720;51.972;4.624;2023-02-12T09:37:53;14.18;;;10.32;;
35150;SDS011;55720;51.972;4.624;2023-02-12T09:40:24;14.00;;;10.75;;
35150;SDS011;55720;51.972;4.624;2023-02-12T09:43:14;19.75;;;11.20;;
35150;SDS011;55720;51.972;4.624;2023-02-12T09:45:47;14.77;;;10.35;;
35150;SDS011;55720;51.972;4.624;2023-02-12T09:50:58;16.50;;;11.45;;
35150;SDS011;55720;51.972;4.624;2023-02-12T09:53:28;15.57;;;10.88;;
35150;SDS011;55720;51.972;4.624;2023-02-12T09:55:55;14.23;;;10.18;;
35150;SDS011;55720;51.972;4.624;2023-02-12T10:01:20;13.95;;;9.48;;
35150;SDS011;55720;51.972;4.624;2023-02-12T10:03:47;12.27;;;10.05;;
35150;SDS011;55720;51.972;4.624;2023-02-12T10:27:49;13.52;;;9.48;;
35150;SDS011;55720;51.972;4.624;2023-02-12T10:30:20;16.23;;;10.35;;
35150;SDS011;55720;51.972;4.624;2023-02-12T10:32:47;13.23;;;9.13;;
35150;SDS011;55720;51.972;4.624;2023-02-12T10:35:17;12.55;;;9.27;;
35150;SDS011;55720;51.972;4.624;2023-02-12T10:37:47;15.73;;;9.10;;
35150;SDS011;55720;51.972;4.624;2023-02-12T10:40:30;17.30;;;9.40;;
35150;SDS011;55720;51.972;4.624;2023-02-12T10:42:58;13.10;;;9.35;;
35150;SDS011;55720;51.972;4.624;2023-02-12T10:45:31;11.23;;;8.80;;
35150;SDS011;55720;51.972;4.624;2023-02-12T10:48:06;13.10;;;9.25;;
35150;SDS011;55720;51.972;4.624;2023-02-12T10:53:20;12.88;;;9.85;;
35150;SDS011;55720;51.972;4.624;2023-02-12T10:58:50;10.50;;;8.70;;
35150;SDS011;55720;51.972;4.624;2023-02-12T11:01:30;11.95;;;8.55;;
35150;SDS011;55720;51.972;4.624;2023-02-12T11:03:59;14.10;;;9.10;;
35150;SDS011;55720;51.972;4.624;2023-02-12T11:07:07;12.57;;;8.65;;
35150;SDS011;55720;51.972;4.624;2023-02-12T11:09:38;12.63;;;9.30;;
35150;SDS011;55720;51.972;4.624;2023-02-12T11:12:29;10.20;;;8.57;;
35150;SDS011;55720;51.972;4.624;2023-02-12T11:17:32;11.93;;;8.65;;
35150;SDS011;55720;51.972;4.624;2023-02-12T11:20:03;16.10;;;9.55;;
35150;SDS011;55720;51.972;4.624;2023-02-12T11:22:28;12.05;;;9.70;;
35150;SDS011;55720;51.972;4.624;2023-02-12T11:25:02;14.48;;;9.68;;
35150;SDS011;55720;51.972;4.624;2023-02-12T11:27:39;12.40;;;9.52;;
35150;SDS011;55720;51.972;4.624;2023-02-12T11:32:34;12.57;;;9.40;;
35150;SDS011;55720;51.972;4.624;2023-02-12T11:35:12;14.25;;;9.68;;
35150;SDS011;55720;51.972;4.624;2023-02-12T11:37:42;16.95;;;10.35;;
35150;SDS011;55720;51.972;4.624;2023-02-12T11:40:20;10.93;;;8.70;;
35150;SDS011;55720;51.972;4.624;2023-02-12T11:42:51;11.98;;;9.52;;
35150;SDS011;55720;51.972;4.624;2023-02-12T11:45:21;15.00;;;9.57;;
35150;SDS011;55720;51.972;4.624;2023-02-12T11:47:52;16.25;;;9.35;;
35150;SDS011;55720;51.972;4.624;2023-02-12T11:50:23;15.85;;;10.18;;
35150;SDS011;55720;51.972;4.624;2023-02-12T11:52:58;15.75;;;9.25;;
35150;SDS011;55720;51.972;4.624;2023-02-12T11:55:26;17.63;;;10.23;;
35150;SDS011;55720;51.972;4.624;2023-02-12T12:03:24;13.32;;;9.68;;
35150;SDS011;55720;51.972;4.624;2023-02-12T12:05:56;14.50;;;9.73;;
35150;SDS011;55720;51.972;4.624;2023-02-12T12:08:27;15.27;;;10.55;;
35150;SDS011;55720;51.972;4.624;2023-02-12T12:11:14;16.70;;;9.52;;
35150;SDS011;55720;51.972;4.624;2023-02-12T12:13:46;14.95;;;9.57;;
35150;SDS011;55720;51.972;4.624;2023-02-12T12:16:26;16.30;;;9.20;;
35150;SDS011;55720;51.972;4.624;2023-02-12T12:19:25;13.02;;;9.40;;
35150;SDS011;55720;51.972;4.624;2023-02-12T12:25:09;14.35;;;7.82;;
35150;SDS011;55720;51.972;4.624;2023-02-12T12:30:43;10.95;;;7.50;;
35150;SDS011;55720;51.972;4.624;2023-02-12T12:33:37;11.15;;;7.03;;
35150;SDS011;55720;51.972;4.624;2023-02-12T12:39:05;10.40;;;6.82;;
35150;SDS011;55720;51.972;4.624;2023-02-12T12:52:30;9.63;;;6.95;;
35150;SDS011;55720;51.972;4.624;2023-02-12T13:00:37;9.02;;;6.28;;
35150;SDS011;55720;51.972;4.624;2023-02-12T13:14:41;9.50;;;6.15;;
35150;SDS011;55720;51.972;4.624;2023-02-12T13:22:51;11.82;;;7.53;;
35150;SDS011;55720;51.972;4.624;2023-02-12T13:25:27;12.25;;;7.40;;
35150;SDS011;55720;51.972;4.624;2023-02-12T13:27:58;13.15;;;7.68;;
35150;SDS011;55720;51.972;4.624;2023-02-12T13:30:29;12.10;;;8.00;;
35150;SDS011;55720;51.972;4.624;2023-02-12T13:33:02;14.15;;;7.80;;
35150;SDS011;55720;51.972;4.624;2023-02-12T13:35:32;11.85;;;8.50;;
35150;SDS011;55720;51.972;4.624;2023-02-12T13:38:01;14.93;;;8.35;;
35150;SDS011;55720;51.972;4.624;2023-02-12T13:40:28;12.88;;;8.52;;
35150;SDS011;55720;51.972;4.624;2023-02-12T13:53:16;13.07;;;8.85;;
35150;SDS011;55720;51.972;4.624;2023-02-12T14:03:24;12.10;;;9.38;;
35150;SDS011;55720;51.972;4.624;2023-02-12T14:09:06;12.60;;;9.23;;
35150;SDS011;55720;51.972;4.624;2023-02-12T14:11:37;15.00;;;9.82;;
35150;SDS011;55720;51.972;4.624;2023-02-12T14:14:12;16.33;;;10.55;;
35150;SDS011;55720;51.972;4.624;2023-02-12T14:16:48;13.80;;;9.57;;
35150;SDS011;55720;51.972;4.624;2023-02-12T14:24:54;15.13;;;10.60;;
35150;SDS011;55720;51.972;4.624;2023-02-12T14:30:03;18.50;;;11.07;;
35150;SDS011;55720;51.972;4.624;2023-02-12T14:43:01;27.30;;;13.25;;
35150;SDS011;55720;51.972;4.624;2023-02-12T14:45:32;23.85;;;13.02;;
35150;SDS011;55720;51.972;4.624;2023-02-12T14:47:59;20.10;;;11.35;;
35150;SDS011;55720;51.972;4.624;2023-02-12T14:50:36;19.52;;;11.70;;
35150;SDS011;55720;51.972;4.624;2023-02-12T14:53:28;21.08;;;11.52;;
35150;SDS011;55720;51.972;4.624;2023-02-12T14:55:54;24.20;;;13.02;;
35150;SDS011;55720;51.972;4.624;2023-02-12T14:58:21;18.08;;;11.80;;
35150;SDS011;55720;51.972;4.624;2023-02-12T15:00:49;17.50;;;10.85;;
35150;SDS011;55720;51.972;4.624;2023-02-12T15:03:21;18.58;;;11.32;;
35150;SDS011;55720;51.972;4.624;2023-02-12T15:06:03;18.88;;;11.52;;
35150;SDS011;55720;51.972;4.624;2023-02-12T15:08:44;21.00;;;12.23;;
35150;SDS011;55720;51.972;4.624;2023-02-12T15:11:27;21.67;;;12.68;;
35150;SDS011;55720;51.972;4.624;2023-02-12T15:16:33;20.33;;;13.32;;
35150;SDS011;55720;51.972;4.624;2023-02-12T15:19:16;24.38;;;13.77;;
35150;SDS011;55720;51.972;4.624;2023-02-12T15:22:21;26.58;;;14.85;;
35150;SDS011;55720;51.972;4.624;2023-02-12T15:24:46;30.05;;;15.52;;
35150;SDS011;55720;51.972;4.624;2023-02-12T15:27:13;29.08;;;14.90;;
35150;SDS011;55720;51.972;4.624;2023-02-12T15:29:49;26.63;;;15.35;;
35150;SDS011;55720;51.972;4.624;2023-02-12T15:32:23;29.40;;;15.07;;
35150;SDS011;55720;51.972;4.624;2023-02-12T15:34:51;27.33;;;14.63;;
35150;SDS011;55720;51.972;4.624;2023-02-12T15:37:20;26.20;;;14.15;;
35150;SDS011;55720;51.972;4.624;2023-02-12T15:39:48;28.17;;;14.95;;
35150;SDS011;55720;51.972;4.624;2023-02-12T15:42:38;22.98;;;13.65;;
35150;SDS011;55720;51.972;4.624;2023-02-12T15:47:40;22.25;;;13.52;;
35150;SDS011;55720;51.972;4.624;2023-02-12T15:50:11;23.88;;;14.13;;
35150;SDS011;55720;51.972;4.624;2023-02-12T15:52:38;25.10;;;14.73;;
35150;SDS011;55720;51.972;4.624;2023-02-12T15:55:05;28.58;;;14.25;;
35150;SDS011;55720;51.972;4.624;2023-02-12T15:57:38;27.23;;;14.88;;
35150;SDS011;55720;51.972;4.624;2023-02-12T16:00:06;30.60;;;15.07;;
35150;SDS011;55720;51.972;4.624;2023-02-12T16:02:34;25.35;;;14.52;;
35150;SDS011;55720;51.972;4.624;2023-02-12T16:04:59;31.90;;;15.18;;
35150;SDS011;55720;51.972;4.624;2023-02-12T16:07:28;28.25;;;15.32;;
35150;SDS011;55720;51.972;4.624;2023-02-12T16:09:55;34.13;;;17.23;;
35150;SDS011;55720;51.972;4.624;2023-02-12T16:12:23;31.00;;;15.73;;
35150;SDS011;55720;51.972;4.624;2023-02-12T16:15:22;31.42;;;16.30;;
35150;SDS011;55720;51.972;4.624;2023-02-12T16:17:52;35.35;;;17.00;;
35150;SDS011;55720;51.972;4.624;2023-02-12T16:22:49;33.85;;;16.67;;
35150;SDS011;55720;51.972;4.624;2023-02-12T16:30:31;33.83;;;17.73;;
35150;SDS011;55720;51.972;4.624;2023-02-12T16:33:49;37.85;;;18.55;;
35150;SDS011;55720;51.972;4.624;2023-02-12T16:36:02;35.22;;;16.35;;
35150;SDS011;55720;51.972;4.624;2023-02-12T16:38:39;30.98;;;17.05;;
35150;SDS011;55720;51.972;4.624;2023-02-12T16:46:32;33.10;;;16.67;;
35150;SDS011;55720;51.972;4.624;2023-02-12T16:49:12;43.15;;;17.92;;
35150;SDS011;55720;51.972;4.624;2023-02-12T16:51:40;36.28;;;16.80;;
35150;SDS011;55720;51.972;4.624;2023-02-12T16:54:22;40.67;;;18.40;;
35150;SDS011;55720;51.972;4.624;2023-02-12T16:56:48;36.47;;;17.83;;
35150;SDS011;55720;51.972;4.624;2023-02-12T16:59:13;33.47;;;16.77;;
35150;SDS011;55720;51.972;4.624;2023-02-12T17:01:39;32.65;;;16.27;;
35150;SDS011;55720;51.972;4.624;2023-02-12T17:04:05;37.17;;;16.67;;
35150;SDS011;55720;51.972;4.624;2023-02-12T17:06:32;39.83;;;17.70;;
35150;SDS011;55720;51.972;4.624;2023-02-12T17:08:58;32.60;;;16.30;;
35150;SDS011;55720;51.972;4.624;2023-02-12T17:11:24;31.58;;;16.00;;
35150;SDS011;55720;51.972;4.624;2023-02-12T17:13:52;36.40;;;17.42;;
35150;SDS011;55720;51.972;4.624;2023-02-12T17:16:19;36.78;;;16.58;;
35150;SDS011;55720;51.972;4.624;2023-02-12T17:18:45;34.35;;;17.45;;
35150;SDS011;55720;51.972;4.624;2023-02-12T17:21:21;36.80;;;17.75;;
35150;SDS011;55720;51.972;4.624;2023-02-12T17:23:49;35.13;;;16.73;;
35150;SDS011;55720;51.972;4.624;2023-02-12T17:26:15;34.17;;;16.75;;
35150;SDS011;55720;51.972;4.624;2023-02-12T17:28:40;35.65;;;17.25;;
35150;SDS011;55720;51.972;4.624;2023-02-12T17:31:12;35.45;;;16.67;;
35150;SDS011;55720;51.972;4.624;2023-02-12T17:33:37;39.50;;;18.67;;
35150;SDS011;55720;51.972;4.624;2023-02-12T17:36:03;35.88;;;17.27;;
35150;SDS011;55720;51.972;4.624;2023-02-12T17:38:29;36.05;;;18.25;;
35150;SDS011;55720;51.972;4.624;2023-02-12T17:40:55;37.92;;;18.08;;
35150;SDS011;55720;51.972;4.624;2023-02-12T17:43:20;37.70;;;18.00;;
35150;SDS011;55720;51.972;4.624;2023-02-12T17:45:46;35.47;;;17.02;;
35150;SDS011;55720;51.972;4.624;2023-02-12T17:48:11;36.10;;;17.58;;
35150;SDS011;55720;51.972;4.624;2023-02-12T17:50:38;39.47;;;19.20;;
35150;SDS011;55720;51.972;4.624;2023-02-12T17:53:05;34.47;;;17.15;;
35150;SDS011;55720;51.972;4.624;2023-02-12T17:55:31;35.83;;;17.40;;
35150;SDS011;55720;51.972;4.624;2023-02-12T17:57:57;41.85;;;18.70;;
35150;SDS011;55720;51.972;4.624;2023-02-12T18:00:23;35.63;;;17.58;;
35150;SDS011;55720;51.972;4.624;2023-02-12T18:02:51;36.10;;;17.20;;